sensor_id;sensor_type;location;lat;lon;timestamp;P1;durP1;ratioP1;P2;durP2;ratioP2
75400;SDS011;63974;47.538;18.972;2024-02-23T00:03:00;2.80;;;1.77;;
75400;SDS011;63974;47.538;18.972;2024-02-23T00:06:02;3.92;;;1.98;;
75400;SDS011;63974;47.538;18.972;2024-02-23T00:09:05;3.13;;;1.80;;
75400;SDS011;63974;47.538;18.972;2024-02-23T00:12:08;3.00;;;1.98;;
75400;SDS011;63974;47.538;18.972;2024-02-23T00:15:11;3.33;;;1.88;;
75400;SDS011;63974;47.538;18.972;2024-02-23T00:18:14;4.18;;;2.22;;
75400;SDS011;63974;47.538;18.972;2024-02-23T00:21:18;3.58;;;1.05;;
75400;SDS011;63974;47.538;18.972;2024-02-23T00:24:21;2.13;;;1.23;;
75400;SDS011;63974;47.538;18.972;2024-02-23T00:27:23;2.92;;;1.83;;
75400;SDS011;63974;47.538;18.972;2024-02-23T00:30:26;3.65;;;1.83;;
75400;SDS011;63974;47.538;18.972;2024-02-23T00:33:29;4.35;;;1.95;;
75400;SDS011;63974;47.538;18.972;2024-02-23T00:36:32;2.67;;;1.70;;
75400;SDS011;63974;47.538;18.972;2024-02-23T00:39:35;2.87;;;1.60;;
75400;SDS011;63974;47.538;18.972;2024-02-23T00:42:38;2.92;;;1.60;;
75400;SDS011;63974;47.538;18.972;2024-02-23T00:45:41;2.58;;;1.67;;
75400;SDS011;63974;47.538;18.972;2024-02-23T00:48:44;2.53;;;1.75;;
75400;SDS011;63974;47.538;18.972;2024-02-23T00:51:46;2.38;;;1.60;;
75400;SDS011;63974;47.538;18.972;2024-02-23T00:54:49;4.37;;;2.10;;
75400;SDS011;63974;47.538;18.972;2024-02-23T00:57:52;2.08;;;1.50;;
75400;SDS011;63974;47.538;18.972;2024-02-23T01:00:55;1.83;;;1.05;;
75400;SDS011;63974;47.538;18.972;2024-02-23T01:03:57;1.98;;;1.48;;
75400;SDS011;63974;47.538;18.972;2024-02-23T01:07:00;3.30;;;1.85;;
75400;SDS011;63974;47.538;18.972;2024-02-23T01:10:03;3.07;;;1.03;;
75400;SDS011;63974;47.538;18.972;2024-02-23T01:13:06;3.40;;;1.80;;
75400;SDS011;63974;47.538;18.972;2024-02-23T01:16:09;5.00;;;1.55;;
75400;SDS011;63974;47.538;18.972;2024-02-23T01:19:11;3.65;;;1.65;;
75400;SDS011;63974;47.538;18.972;2024-02-23T01:22:14;2.63;;;1.33;;
75400;SDS011;63974;47.538;18.972;2024-02-23T01:25:17;5.20;;;1.63;;
75400;SDS011;63974;47.538;18.972;2024-02-23T01:28:20;2.00;;;1.35;;
75400;SDS011;63974;47.538;18.972;2024-02-23T01:31:23;2.22;;;1.50;;
75400;SDS011;63974;47.538;18.972;2024-02-23T01:34:25;3.22;;;1.55;;
75400;SDS011;63974;47.538;18.972;2024-02-23T01:37:28;3.78;;;1.73;;
75400;SDS011;63974;47.538;18.972;2024-02-23T01:40:31;2.33;;;1.70;;
75400;SDS011;63974;47.538;18.972;2024-02-23T01:43:33;2.67;;;1.65;;
75400;SDS011;63974;47.538;18.972;2024-02-23T01:46:36;2.90;;;1.50;;
75400;SDS011;63974;47.538;18.972;2024-02-23T01:49:39;2.40;;;1.55;;
75400;SDS011;63974;47.538;18.972;2024-02-23T01:52:42;2.88;;;1.90;;
75400;SDS011;63974;47.538;18.972;2024-02-23T01:55:45;4.33;;;1.60;;
75400;SDS011;63974;47.538;18.972;2024-02-23T01:58:49;3.88;;;1.92;;
75400;SDS011;63974;47.538;18.972;2024-02-23T02:01:52;5.60;;;2.38;;
75400;SDS011;63974;47.538;18.972;2024-02-23T02:04:55;3.60;;;1.98;;
75400;SDS011;63974;47.538;18.972;2024-02-23T02:07:58;4.03;;;2.28;;
75400;SDS011;63974;47.538;18.972;2024-02-23T02:11:03;3.13;;;2.10;;
75400;SDS011;63974;47.538;18.972;2024-02-23T02:14:06;4.82;;;2.08;;
75400;SDS011;63974;47.538;18.972;2024-02-23T02:17:09;3.45;;;2.40;;
75400;SDS011;63974;47.538;18.972;2024-02-23T02:20:12;4.60;;;2.05;;
75400;SDS011;63974;47.538;18.972;2024-02-23T02:23:16;2.92;;;2.05;;
75400;SDS011;63974;47.538;18.972;2024-02-23T02:26:21;5.77;;;2.27;;
75400;SDS011;63974;47.538;18.972;2024-02-23T02:29:24;3.85;;;1.73;;
75400;SDS011;63974;47.538;18.972;2024-02-23T02:32:26;4.25;;;2.15;;
75400;SDS011;63974;47.538;18.972;2024-02-23T02:35:30;4.63;;;2.30;;
75400;SDS011;63974;47.538;18.972;2024-02-23T02:38:32;5.15;;;2.28;;
75400;SDS011;63974;47.538;18.972;2024-02-23T02:41:35;5.07;;;2.77;;
75400;SDS011;63974;47.538;18.972;2024-02-23T02:44:38;6.40;;;2.25;;
75400;SDS011;63974;47.538;18.972;2024-02-23T02:47:41;5.95;;;3.22;;
75400;SDS011;63974;47.538;18.972;2024-02-23T02:50:44;4.35;;;2.00;;
75400;SDS011;63974;47.538;18.972;2024-02-23T02:53:47;6.00;;;2.58;;
75400;SDS011;63974;47.538;18.972;2024-02-23T02:56:49;4.50;;;2.50;;
75400;SDS011;63974;47.538;18.972;2024-02-23T02:59:53;4.32;;;2.78;;
75400;SDS011;63974;47.538;18.972;2024-02-23T03:02:55;4.82;;;2.70;;
75400;SDS011;63974;47.538;18.972;2024-02-23T03:05:58;5.28;;;2.20;;
75400;SDS011;63974;47.538;18.972;2024-02-23T03:09:01;5.43;;;2.80;;
75400;SDS011;63974;47.538;18.972;2024-02-23T03:12:04;4.87;;;2.53;;
75400;SDS011;63974;47.538;18.972;2024-02-23T03:15:07;5.38;;;2.83;;
75400;SDS011;63974;47.538;18.972;2024-02-23T03:18:12;4.75;;;2.92;;
75400;SDS011;63974;47.538;18.972;2024-02-23T03:21:17;5.68;;;3.30;;
75400;SDS011;63974;47.538;18.972;2024-02-23T03:24:19;6.53;;;3.20;;
75400;SDS011;63974;47.538;18.972;2024-02-23T03:27:27;4.30;;;2.60;;
75400;SDS011;63974;47.538;18.972;2024-02-23T03:30:31;7.05;;;3.63;;
75400;SDS011;63974;47.538;18.972;2024-02-23T03:33:38;6.03;;;3.38;;
75400;SDS011;63974;47.538;18.972;2024-02-23T03:36:41;5.70;;;3.00;;
75400;SDS011;63974;47.538;18.972;2024-02-23T03:39:43;7.00;;;3.50;;
75400;SDS011;63974;47.538;18.972;2024-02-23T03:42:46;8.83;;;3.03;;
75400;SDS011;63974;47.538;18.972;2024-02-23T03:45:49;5.07;;;3.08;;
75400;SDS011;63974;47.538;18.972;2024-02-23T03:48:52;19.25;;;8.38;;
75400;SDS011;63974;47.538;18.972;2024-02-23T03:51:55;17.20;;;7.10;;
75400;SDS011;63974;47.538;18.972;2024-02-23T03:54:57;14.50;;;7.13;;
75400;SDS011;63974;47.538;18.972;2024-02-23T03:58:00;7.77;;;4.30;;
75400;SDS011;63974;47.538;18.972;2024-02-23T04:01:03;7.95;;;3.97;;
75400;SDS011;63974;47.538;18.972;2024-02-23T04:04:06;6.70;;;4.00;;
75400;SDS011;63974;47.538;18.972;2024-02-23T04:07:09;5.85;;;3.35;;
75400;SDS011;63974;47.538;18.972;2024-02-23T04:10:12;5.70;;;3.55;;
75400;SDS011;63974;47.538;18.972;2024-02-23T04:13:18;6.17;;;3.70;;
75400;SDS011;63974;47.538;18.972;2024-02-23T04:16:22;6.15;;;3.42;;
75400;SDS011;63974;47.538;18.972;2024-02-23T04:19:27;7.57;;;4.13;;
75400;SDS011;63974;47.538;18.972;2024-02-23T04:22:29;5.68;;;3.40;;
75400;SDS011;63974;47.538;18.972;2024-02-23T04:25:32;6.85;;;3.63;;
75400;SDS011;63974;47.538;18.972;2024-02-23T04:28:37;6.63;;;4.13;;
75400;SDS011;63974;47.538;18.972;2024-02-23T04:31:41;6.30;;;3.50;;
75400;SDS011;63974;47.538;18.972;2024-02-23T04:34:44;7.22;;;3.47;;
75400;SDS011;63974;47.538;18.972;2024-02-23T04:37:46;6.93;;;3.95;;
75400;SDS011;63974;47.538;18.972;2024-02-23T04:40:51;6.72;;;3.92;;
75400;SDS011;63974;47.538;18.972;2024-02-23T04:43:53;6.70;;;4.03;;
75400;SDS011;63974;47.538;18.972;2024-02-23T04:47:04;7.13;;;3.95;;
75400;SDS011;63974;47.538;18.972;2024-02-23T04:50:07;7.65;;;4.82;;
75400;SDS011;63974;47.538;18.972;2024-02-23T04:53:11;9.98;;;4.78;;
75400;SDS011;63974;47.538;18.972;2024-02-23T04:56:13;8.48;;;4.60;;
75400;SDS011;63974;47.538;18.972;2024-02-23T04:59:16;9.73;;;4.60;;
75400;SDS011;63974;47.538;18.972;2024-02-23T05:02:19;9.88;;;5.18;;
75400;SDS011;63974;47.538;18.972;2024-02-23T05:05:22;7.07;;;4.38;;
75400;SDS011;63974;47.538;18.972;2024-02-23T05:08:24;8.35;;;5.00;;
75400;SDS011;63974;47.538;18.972;2024-02-23T05:11:29;11.85;;;5.63;;
75400;SDS011;63974;47.538;18.972;2024-02-23T05:14:32;9.23;;;4.90;;
75400;SDS011;63974;47.538;18.972;2024-02-23T05:17:35;9.05;;;4.68;;
75400;SDS011;63974;47.538;18.972;2024-02-23T05:20:38;8.63;;;5.07;;
75400;SDS011;63974;47.538;18.972;2024-02-23T05:23:41;7.65;;;4.40;;
75400;SDS011;63974;47.538;18.972;2024-02-23T05:26:43;8.68;;;4.28;;
75400;SDS011;63974;47.538;18.972;2024-02-23T05:29:46;7.53;;;4.00;;
75400;SDS011;63974;47.538;18.972;2024-02-23T05:32:50;6.40;;;3.60;;
75400;SDS011;63974;47.538;18.972;2024-02-23T05:35:52;8.27;;;4.05;;
75400;SDS011;63974;47.538;18.972;2024-02-23T05:38:55;7.43;;;3.40;;
75400;SDS011;63974;47.538;18.972;2024-02-23T05:41:58;8.25;;;4.32;;
75400;SDS011;63974;47.538;18.972;2024-02-23T05:45:02;6.63;;;3.77;;
75400;SDS011;63974;47.538;18.972;2024-02-23T05:48:07;7.10;;;3.88;;
75400;SDS011;63974;47.538;18.972;2024-02-23T05:51:10;12.82;;;5.47;;
75400;SDS011;63974;47.538;18.972;2024-02-23T05:54:12;10.60;;;5.57;;
75400;SDS011;63974;47.538;18.972;2024-02-23T05:57:15;8.60;;;5.10;;
75400;SDS011;63974;47.538;18.972;2024-02-23T06:00:18;10.47;;;5.77;;
75400;SDS011;63974;47.538;18.972;2024-02-23T06:03:23;10.80;;;5.88;;
75400;SDS011;63974;47.538;18.972;2024-02-23T06:06:26;14.70;;;6.53;;
75400;SDS011;63974;47.538;18.972;2024-02-23T06:09:29;12.07;;;6.30;;
75400;SDS011;63974;47.538;18.972;2024-02-23T06:12:32;10.30;;;5.68;;
75400;SDS011;63974;47.538;18.972;2024-02-23T06:15:34;10.13;;;5.90;;
75400;SDS011;63974;47.538;18.972;2024-02-23T06:18:38;8.82;;;5.95;;
75400;SDS011;63974;47.538;18.972;2024-02-23T06:21:43;12.60;;;6.43;;
75400;SDS011;63974;47.538;18.972;2024-02-23T06:24:51;17.83;;;8.90;;
75400;SDS011;63974;47.538;18.972;2024-02-23T06:27:54;15.43;;;9.32;;
75400;SDS011;63974;47.538;18.972;2024-02-23T06:30:56;17.20;;;7.43;;
75400;SDS011;63974;47.538;18.972;2024-02-23T06:33:59;12.77;;;7.63;;
75400;SDS011;63974;47.538;18.972;2024-02-23T06:37:02;15.02;;;7.75;;
75400;SDS011;63974;47.538;18.972;2024-02-23T06:40:05;12.38;;;6.85;;
75400;SDS011;63974;47.538;18.972;2024-02-23T06:43:09;11.60;;;6.13;;
75400;SDS011;63974;47.538;18.972;2024-02-23T06:46:12;10.40;;;6.30;;
75400;SDS011;63974;47.538;18.972;2024-02-23T06:49:15;10.88;;;6.13;;
75400;SDS011;63974;47.538;18.972;2024-02-23T06:52:18;8.27;;;5.53;;
75400;SDS011;63974;47.538;18.972;2024-02-23T06:55:20;18.83;;;9.98;;
75400;SDS011;63974;47.538;18.972;2024-02-23T06:58:23;18.10;;;10.60;;
75400;SDS011;63974;47.538;18.972;2024-02-23T07:01:26;17.30;;;10.63;;
75400;SDS011;63974;47.538;18.972;2024-02-23T07:04:29;22.08;;;12.23;;
75400;SDS011;63974;47.538;18.972;2024-02-23T07:07:32;18.70;;;11.68;;
75400;SDS011;63974;47.538;18.972;2024-02-23T07:10:36;17.20;;;11.40;;
75400;SDS011;63974;47.538;18.972;2024-02-23T07:13:42;22.80;;;12.93;;
75400;SDS011;63974;47.538;18.972;2024-02-23T07:16:46;23.17;;;11.00;;
75400;SDS011;63974;47.538;18.972;2024-02-23T07:19:49;26.10;;;12.85;;
75400;SDS011;63974;47.538;18.972;2024-02-23T07:22:54;25.92;;;13.68;;
75400;SDS011;63974;47.538;18.972;2024-02-23T07:25:56;27.58;;;13.90;;
75400;SDS011;63974;47.538;18.972;2024-02-23T07:28:59;44.90;;;19.73;;
75400;SDS011;63974;47.538;18.972;2024-02-23T07:32:03;40.33;;;17.50;;
75400;SDS011;63974;47.538;18.972;2024-02-23T07:35:10;29.27;;;13.02;;
75400;SDS011;63974;47.538;18.972;2024-02-23T07:38:13;24.45;;;12.18;;
75400;SDS011;63974;47.538;18.972;2024-02-23T07:41:16;20.40;;;10.60;;
75400;SDS011;63974;47.538;18.972;2024-02-23T07:44:22;14.93;;;8.25;;
75400;SDS011;63974;47.538;18.972;2024-02-23T07:47:25;17.60;;;8.10;;
75400;SDS011;63974;47.538;18.972;2024-02-23T07:50:32;18.10;;;7.95;;
75400;SDS011;63974;47.538;18.972;2024-02-23T07:53:35;12.27;;;6.47;;
75400;SDS011;63974;47.538;18.972;2024-02-23T07:56:38;8.73;;;6.28;;
75400;SDS011;63974;47.538;18.972;2024-02-23T07:59:40;9.77;;;5.50;;
75400;SDS011;63974;47.538;18.972;2024-02-23T08:02:44;9.00;;;4.70;;
75400;SDS011;63974;47.538;18.972;2024-02-23T08:05:47;9.50;;;5.22;;
75400;SDS011;63974;47.538;18.972;2024-02-23T08:08:49;9.25;;;5.10;;
75400;SDS011;63974;47.538;18.972;2024-02-23T08:11:52;9.13;;;5.18;;
75400;SDS011;63974;47.538;18.972;2024-02-23T08:14:55;10.07;;;5.88;;
75400;SDS011;63974;47.538;18.972;2024-02-23T08:17:58;9.67;;;6.07;;
75400;SDS011;63974;47.538;18.972;2024-02-23T08:21:03;10.88;;;5.88;;
75400;SDS011;63974;47.538;18.972;2024-02-23T08:24:08;9.95;;;5.90;;
75400;SDS011;63974;47.538;18.972;2024-02-23T08:27:10;8.68;;;6.53;;
75400;SDS011;63974;47.538;18.972;2024-02-23T08:30:13;10.27;;;6.13;;
75400;SDS011;63974;47.538;18.972;2024-02-23T08:33:16;11.17;;;7.37;;
75400;SDS011;63974;47.538;18.972;2024-02-23T08:36:19;12.63;;;7.10;;
75400;SDS011;63974;47.538;18.972;2024-02-23T08:39:22;15.27;;;7.85;;
75400;SDS011;63974;47.538;18.972;2024-02-23T08:42:25;16.00;;;7.90;;
75400;SDS011;63974;47.538;18.972;2024-02-23T08:45:29;16.95;;;8.00;;
75400;SDS011;63974;47.538;18.972;2024-02-23T08:48:32;17.47;;;9.57;;
75400;SDS011;63974;47.538;18.972;2024-02-23T08:51:34;15.30;;;9.18;;
75400;SDS011;63974;47.538;18.972;2024-02-23T08:54:37;15.68;;;8.88;;
75400;SDS011;63974;47.538;18.972;2024-02-23T08:57:41;12.52;;;8.30;;
75400;SDS011;63974;47.538;18.972;2024-02-23T09:00:44;11.88;;;8.30;;
75400;SDS011;63974;47.538;18.972;2024-02-23T09:03:48;51.43;;;24.60;;
75400;SDS011;63974;47.538;18.972;2024-02-23T09:06:51;82.93;;;35.58;;
75400;SDS011;63974;47.538;18.972;2024-02-23T09:09:55;99.00;;;39.03;;
75400;SDS011;63974;47.538;18.972;2024-02-23T09:12:59;507.02;;;197.68;;
75400;SDS011;63974;47.538;18.972;2024-02-23T09:16:02;452.90;;;186.13;;
75400;SDS011;63974;47.538;18.972;2024-02-23T09:19:05;304.63;;;119.30;;
75400;SDS011;63974;47.538;18.972;2024-02-23T09:22:08;232.77;;;90.80;;
75400;SDS011;63974;47.538;18.972;2024-02-23T09:25:12;41.50;;;19.17;;
75400;SDS011;63974;47.538;18.972;2024-02-23T09:28:15;19.15;;;10.88;;
75400;SDS011;63974;47.538;18.972;2024-02-23T09:31:18;28.08;;;15.25;;
75400;SDS011;63974;47.538;18.972;2024-02-23T09:34:22;38.03;;;21.17;;
75400;SDS011;63974;47.538;18.972;2024-02-23T09:37:24;27.30;;;12.43;;
75400;SDS011;63974;47.538;18.972;2024-02-23T09:40:27;24.90;;;15.38;;
75400;SDS011;63974;47.538;18.972;2024-02-23T09:43:30;40.88;;;14.30;;
75400;SDS011;63974;47.538;18.972;2024-02-23T09:46:38;34.70;;;9.82;;
75400;SDS011;63974;47.538;18.972;2024-02-23T09:49:42;28.57;;;11.97;;
75400;SDS011;63974;47.538;18.972;2024-02-23T09:52:47;22.40;;;10.95;;
75400;SDS011;63974;47.538;18.972;2024-02-23T09:55:53;17.13;;;7.50;;
75400;SDS011;63974;47.538;18.972;2024-02-23T09:58:59;22.58;;;11.60;;
75400;SDS011;63974;47.538;18.972;2024-02-23T10:02:07;32.55;;;15.68;;
75400;SDS011;63974;47.538;18.972;2024-02-23T10:05:12;14.27;;;7.17;;
75400;SDS011;63974;47.538;18.972;2024-02-23T10:08:16;12.07;;;7.72;;
75400;SDS011;63974;47.538;18.972;2024-02-23T10:11:23;9.55;;;5.57;;
75400;SDS011;63974;47.538;18.972;2024-02-23T10:14:26;9.30;;;5.30;;
75400;SDS011;63974;47.538;18.972;2024-02-23T10:17:30;9.73;;;6.70;;
75400;SDS011;63974;47.538;18.972;2024-02-23T10:20:36;11.03;;;7.07;;
75400;SDS011;63974;47.538;18.972;2024-02-23T10:23:41;11.48;;;7.80;;
75400;SDS011;63974;47.538;18.972;2024-02-23T10:26:44;13.25;;;8.02;;
75400;SDS011;63974;47.538;18.972;2024-02-23T10:29:50;14.50;;;7.45;;
75400;SDS011;63974;47.538;18.972;2024-02-23T10:32:55;9.63;;;6.68;;
75400;SDS011;63974;47.538;18.972;2024-02-23T10:35:58;9.90;;;7.17;;
75400;SDS011;63974;47.538;18.972;2024-02-23T10:39:03;11.18;;;6.70;;
75400;SDS011;63974;47.538;18.972;2024-02-23T10:42:08;15.48;;;8.75;;
75400;SDS011;63974;47.538;18.972;2024-02-23T10:45:12;12.35;;;7.55;;
75400;SDS011;63974;47.538;18.972;2024-02-23T10:48:15;13.07;;;8.80;;
75400;SDS011;63974;47.538;18.972;2024-02-23T10:51:19;9.63;;;6.57;;
75400;SDS011;63974;47.538;18.972;2024-02-23T10:54:22;14.15;;;7.38;;
75400;SDS011;63974;47.538;18.972;2024-02-23T10:57:28;11.98;;;8.95;;
75400;SDS011;63974;47.538;18.972;2024-02-23T11:00:31;8.23;;;6.35;;
75400;SDS011;63974;47.538;18.972;2024-02-23T11:03:34;8.63;;;5.68;;
75400;SDS011;63974;47.538;18.972;2024-02-23T11:06:39;15.63;;;6.63;;
75400;SDS011;63974;47.538;18.972;2024-02-23T11:09:43;10.05;;;5.97;;
75400;SDS011;63974;47.538;18.972;2024-02-23T11:12:56;11.95;;;6.80;;
75400;SDS011;63974;47.538;18.972;2024-02-23T11:16:03;12.55;;;7.50;;
75400;SDS011;63974;47.538;18.972;2024-02-23T11:19:08;11.25;;;6.78;;
75400;SDS011;63974;47.538;18.972;2024-02-23T11:22:13;10.57;;;5.90;;
75400;SDS011;63974;47.538;18.972;2024-02-23T11:25:27;8.32;;;4.90;;
75400;SDS011;63974;47.538;18.972;2024-02-23T11:28:30;8.00;;;5.43;;
75400;SDS011;63974;47.538;18.972;2024-02-23T11:31:34;7.75;;;5.03;;
75400;SDS011;63974;47.538;18.972;2024-02-23T11:34:36;7.13;;;4.85;;
75400;SDS011;63974;47.538;18.972;2024-02-23T11:37:49;6.70;;;4.80;;
75400;SDS011;63974;47.538;18.972;2024-02-23T11:41:06;8.63;;;4.70;;
75400;SDS011;63974;47.538;18.972;2024-02-23T11:44:11;6.85;;;4.03;;
75400;SDS011;63974;47.538;18.972;2024-02-23T11:47:15;8.45;;;4.43;;
75400;SDS011;63974;47.538;18.972;2024-02-23T11:50:19;8.35;;;4.60;;
75400;SDS011;63974;47.538;18.972;2024-02-23T11:53:23;73.03;;;30.80;;
75400;SDS011;63974;47.538;18.972;2024-02-23T11:56:28;31.92;;;17.20;;
75400;SDS011;63974;47.538;18.972;2024-02-23T11:59:32;11.02;;;6.82;;
75400;SDS011;63974;47.538;18.972;2024-02-23T12:02:35;13.23;;;10.70;;
75400;SDS011;63974;47.538;18.972;2024-02-23T12:05:41;28.55;;;13.10;;
75400;SDS011;63974;47.538;18.972;2024-02-23T12:08:44;31.70;;;13.83;;
75400;SDS011;63974;47.538;18.972;2024-02-23T12:11:49;12.82;;;7.95;;
75400;SDS011;63974;47.538;18.972;2024-02-23T12:14:52;11.70;;;6.72;;
75400;SDS011;63974;47.538;18.972;2024-02-23T12:17:57;27.27;;;11.50;;
75400;SDS011;63974;47.538;18.972;2024-02-23T12:21:05;95.80;;;32.45;;
75400;SDS011;63974;47.538;18.972;2024-02-23T12:24:09;28.57;;;11.87;;
75400;SDS011;63974;47.538;18.972;2024-02-23T12:27:15;11.18;;;6.15;;
75400;SDS011;63974;47.538;18.972;2024-02-23T12:30:20;15.85;;;8.10;;
75400;SDS011;63974;47.538;18.972;2024-02-23T12:33:22;28.02;;;11.27;;
75400;SDS011;63974;47.538;18.972;2024-02-23T12:36:25;14.23;;;8.07;;
75400;SDS011;63974;47.538;18.972;2024-02-23T12:39:28;13.73;;;7.97;;
75400;SDS011;63974;47.538;18.972;2024-02-23T12:42:31;12.20;;;6.72;;
75400;SDS011;63974;47.538;18.972;2024-02-23T12:45:33;23.02;;;10.27;;
75400;SDS011;63974;47.538;18.972;2024-02-23T12:48:36;12.82;;;6.72;;
75400;SDS011;63974;47.538;18.972;2024-02-23T12:51:39;9.52;;;5.57;;
75400;SDS011;63974;47.538;18.972;2024-02-23T12:54:43;55.50;;;20.43;;
75400;SDS011;63974;47.538;18.972;2024-02-23T12:57:46;31.40;;;13.40;;
75400;SDS011;63974;47.538;18.972;2024-02-23T13:00:49;23.45;;;11.48;;
75400;SDS011;63974;47.538;18.972;2024-02-23T13:03:52;13.00;;;7.10;;
75400;SDS011;63974;47.538;18.972;2024-02-23T13:06:55;25.60;;;11.10;;
75400;SDS011;63974;47.538;18.972;2024-02-23T13:10:00;23.50;;;10.37;;
75400;SDS011;63974;47.538;18.972;2024-02-23T13:13:03;24.85;;;11.90;;
75400;SDS011;63974;47.538;18.972;2024-02-23T13:16:06;21.15;;;9.50;;
75400;SDS011;63974;47.538;18.972;2024-02-23T13:19:10;10.07;;;5.32;;
75400;SDS011;63974;47.538;18.972;2024-02-23T13:22:13;7.38;;;4.20;;
75400;SDS011;63974;47.538;18.972;2024-02-23T13:25:16;13.10;;;5.67;;
75400;SDS011;63974;47.538;18.972;2024-02-23T13:28:19;22.83;;;10.95;;
75400;SDS011;63974;47.538;18.972;2024-02-23T13:31:21;15.40;;;7.00;;
75400;SDS011;63974;47.538;18.972;2024-02-23T13:34:24;12.23;;;5.85;;
75400;SDS011;63974;47.538;18.972;2024-02-23T13:37:28;8.85;;;4.40;;
75400;SDS011;63974;47.538;18.972;2024-02-23T13:40:31;6.93;;;4.30;;
75400;SDS011;63974;47.538;18.972;2024-02-23T13:43:34;7.50;;;4.70;;
75400;SDS011;63974;47.538;18.972;2024-02-23T13:46:38;5.57;;;4.03;;
75400;SDS011;63974;47.538;18.972;2024-02-23T13:49:41;6.00;;;4.03;;
75400;SDS011;63974;47.538;18.972;2024-02-23T13:52:44;8.02;;;5.55;;
75400;SDS011;63974;47.538;18.972;2024-02-23T13:55:47;8.97;;;5.90;;
75400;SDS011;63974;47.538;18.972;2024-02-23T13:58:50;6.72;;;4.32;;
75400;SDS011;63974;47.538;18.972;2024-02-23T14:01:52;5.72;;;3.53;;
75400;SDS011;63974;47.538;18.972;2024-02-23T14:05:00;8.23;;;4.30;;
75400;SDS011;63974;47.538;18.972;2024-02-23T14:08:05;8.07;;;4.85;;
75400;SDS011;63974;47.538;18.972;2024-02-23T14:11:10;8.33;;;5.10;;
75400;SDS011;63974;47.538;18.972;2024-02-23T14:14:13;10.02;;;5.60;;
75400;SDS011;63974;47.538;18.972;2024-02-23T14:17:16;9.52;;;5.30;;
75400;SDS011;63974;47.538;18.972;2024-02-23T14:20:19;8.88;;;4.95;;
75400;SDS011;63974;47.538;18.972;2024-02-23T14:23:22;8.32;;;6.10;;
75400;SDS011;63974;47.538;18.972;2024-02-23T14:26:25;11.33;;;6.20;;
75400;SDS011;63974;47.538;18.972;2024-02-23T14:29:28;7.35;;;4.93;;
75400;SDS011;63974;47.538;18.972;2024-02-23T14:32:31;7.88;;;5.28;;
75400;SDS011;63974;47.538;18.972;2024-02-23T14:35:34;7.50;;;5.65;;
75400;SDS011;63974;47.538;18.972;2024-02-23T14:38:36;6.53;;;5.00;;
75400;SDS011;63974;47.538;18.972;2024-02-23T14:41:39;6.63;;;4.43;;
75400;SDS011;63974;47.538;18.972;2024-02-23T14:44:42;8.32;;;5.47;;
75400;SDS011;63974;47.538;18.972;2024-02-23T14:47:45;7.32;;;5.22;;
75400;SDS011;63974;47.538;18.972;2024-02-23T14:50:48;6.97;;;4.50;;
75400;SDS011;63974;47.538;18.972;2024-02-23T14:53:51;7.28;;;4.10;;
75400;SDS011;63974;47.538;18.972;2024-02-23T14:56:53;10.47;;;5.60;;
75400;SDS011;63974;47.538;18.972;2024-02-23T14:59:56;8.00;;;4.95;;
75400;SDS011;63974;47.538;18.972;2024-02-23T15:02:59;6.63;;;4.30;;
75400;SDS011;63974;47.538;18.972;2024-02-23T15:06:02;6.57;;;3.38;;
75400;SDS011;63974;47.538;18.972;2024-02-23T15:09:06;7.00;;;3.80;;
75400;SDS011;63974;47.538;18.972;2024-02-23T15:12:11;5.60;;;3.87;;
75400;SDS011;63974;47.538;18.972;2024-02-23T15:15:15;5.20;;;3.30;;
75400;SDS011;63974;47.538;18.972;2024-02-23T15:18:18;4.47;;;2.80;;
75400;SDS011;63974;47.538;18.972;2024-02-23T15:21:21;8.40;;;2.97;;
75400;SDS011;63974;47.538;18.972;2024-02-23T15:24:24;5.60;;;3.00;;
75400;SDS011;63974;47.538;18.972;2024-02-23T15:27:27;3.70;;;2.90;;
75400;SDS011;63974;47.538;18.972;2024-02-23T15:30:30;5.47;;;3.40;;
75400;SDS011;63974;47.538;18.972;2024-02-23T15:33:34;5.72;;;3.55;;
75400;SDS011;63974;47.538;18.972;2024-02-23T15:36:38;7.00;;;3.53;;
75400;SDS011;63974;47.538;18.972;2024-02-23T15:39:41;11.25;;;4.57;;
75400;SDS011;63974;47.538;18.972;2024-02-23T15:42:45;9.03;;;4.83;;
75400;SDS011;63974;47.538;18.972;2024-02-23T15:45:48;8.85;;;5.40;;
75400;SDS011;63974;47.538;18.972;2024-02-23T15:48:50;7.82;;;4.63;;
75400;SDS011;63974;47.538;18.972;2024-02-23T15:51:53;8.40;;;4.78;;
75400;SDS011;63974;47.538;18.972;2024-02-23T15:55:02;6.57;;;4.13;;
75400;SDS011;63974;47.538;18.972;2024-02-23T15:58:06;8.70;;;6.17;;
75400;SDS011;63974;47.538;18.972;2024-02-23T16:01:09;10.55;;;7.45;;
75400;SDS011;63974;47.538;18.972;2024-02-23T16:04:12;10.95;;;7.78;;
75400;SDS011;63974;47.538;18.972;2024-02-23T16:07:15;18.17;;;12.85;;
75400;SDS011;63974;47.538;18.972;2024-02-23T16:10:18;10.98;;;9.02;;
75400;SDS011;63974;47.538;18.972;2024-02-23T16:13:20;12.70;;;8.33;;
75400;SDS011;63974;47.538;18.972;2024-02-23T16:16:23;15.63;;;10.57;;
75400;SDS011;63974;47.538;18.972;2024-02-23T16:19:26;87.43;;;24.95;;
75400;SDS011;63974;47.538;18.972;2024-02-23T16:22:29;170.18;;;37.95;;
75400;SDS011;63974;47.538;18.972;2024-02-23T16:25:32;108.22;;;29.85;;
75400;SDS011;63974;47.538;18.972;2024-02-23T16:28:35;19.03;;;8.30;;
75400;SDS011;63974;47.538;18.972;2024-02-23T16:31:38;27.10;;;13.00;;
75400;SDS011;63974;47.538;18.972;2024-02-23T16:34:42;40.67;;;17.00;;
75400;SDS011;63974;47.538;18.972;2024-02-23T16:37:44;10.63;;;5.72;;
75400;SDS011;63974;47.538;18.972;2024-02-23T16:40:47;8.27;;;5.22;;
75400;SDS011;63974;47.538;18.972;2024-02-23T16:43:50;60.27;;;23.53;;
75400;SDS011;63974;47.538;18.972;2024-02-23T16:46:53;49.53;;;18.70;;
75400;SDS011;63974;47.538;18.972;2024-02-23T16:49:56;25.40;;;12.75;;
75400;SDS011;63974;47.538;18.972;2024-02-23T16:52:58;12.02;;;6.93;;
75400;SDS011;63974;47.538;18.972;2024-02-23T16:56:02;11.95;;;7.05;;
75400;SDS011;63974;47.538;18.972;2024-02-23T16:59:05;15.93;;;9.03;;
75400;SDS011;63974;47.538;18.972;2024-02-23T17:02:08;8.10;;;4.60;;
75400;SDS011;63974;47.538;18.972;2024-02-23T17:05:11;4.45;;;3.45;;
75400;SDS011;63974;47.538;18.972;2024-02-23T17:08:15;7.63;;;3.85;;
75400;SDS011;63974;47.538;18.972;2024-02-23T17:11:18;6.05;;;4.55;;
75400;SDS011;63974;47.538;18.972;2024-02-23T17:14:21;5.43;;;3.10;;
75400;SDS011;63974;47.538;18.972;2024-02-23T17:17:24;5.05;;;3.28;;
75400;SDS011;63974;47.538;18.972;2024-02-23T17:20:28;7.03;;;3.67;;
75400;SDS011;63974;47.538;18.972;2024-02-23T17:23:30;5.15;;;3.13;;
75400;SDS011;63974;47.538;18.972;2024-02-23T17:26:33;5.35;;;2.72;;
75400;SDS011;63974;47.538;18.972;2024-02-23T17:29:36;5.10;;;3.00;;
75400;SDS011;63974;47.538;18.972;2024-02-23T17:32:39;5.10;;;2.80;;
75400;SDS011;63974;47.538;18.972;2024-02-23T17:35:42;5.22;;;2.65;;
75400;SDS011;63974;47.538;18.972;2024-02-23T17:38:45;4.50;;;2.88;;
75400;SDS011;63974;47.538;18.972;2024-02-23T17:41:48;4.22;;;3.22;;
75400;SDS011;63974;47.538;18.972;2024-02-23T17:44:51;6.00;;;3.00;;
75400;SDS011;63974;47.538;18.972;2024-02-23T17:47:54;6.05;;;3.45;;
75400;SDS011;63974;47.538;18.972;2024-02-23T17:50:57;4.95;;;3.20;;
75400;SDS011;63974;47.538;18.972;2024-02-23T17:54:00;5.40;;;3.17;;
75400;SDS011;63974;47.538;18.972;2024-02-23T17:57:03;4.47;;;3.15;;
75400;SDS011;63974;47.538;18.972;2024-02-23T18:00:06;5.00;;;2.90;;